sensor_id;sensor_type;location;lat;lon;timestamp;P1;durP1;ratioP1;P2;durP2;ratioP2
27231;SDS011;61835;50.196;6.454;2022-07-01T00:02:00;1.08;;;0.40;;
27231;SDS011;61835;50.196;6.454;2022-07-01T00:04:26;0.50;;;0.43;;
27231;SDS011;61835;50.196;6.454;2022-07-01T00:07:12;0.32;;;0.32;;
27231;SDS011;61835;50.196;6.454;2022-07-01T00:09:37;0.28;;;0.28;;
27231;SDS011;61835;50.196;6.454;2022-07-01T00:12:03;0.75;;;0.55;;
27231;SDS011;61835;50.196;6.454;2022-07-01T00:14:30;1.52;;;0.40;;
27231;SDS011;61835;50.196;6.454;2022-07-01T00:16:56;0.30;;;0.30;;
27231;SDS011;61835;50.196;6.454;2022-07-01T00:19:21;0.35;;;0.30;;
27231;SDS011;61835;50.196;6.454;2022-07-01T00:21:47;0.77;;;0.77;;
27231;SDS011;61835;50.196;6.454;2022-07-01T00:24:13;1.67;;;0.73;;
27231;SDS011;61835;50.196;6.454;2022-07-01T00:26:39;1.25;;;1.15;;
27231;SDS011;61835;50.196;6.454;2022-07-01T00:29:05;1.35;;;0.98;;
27231;SDS011;61835;50.196;6.454;2022-07-01T00:31:30;0.55;;;0.50;;
27231;SDS011;61835;50.196;6.454;2022-07-01T00:33:55;0.30;;;0.30;;
27231;SDS011;61835;50.196;6.454;2022-07-01T00:36:21;0.90;;;0.70;;
27231;SDS011;61835;50.196;6.454;2022-07-01T00:38:46;0.60;;;0.32;;
27231;SDS011;61835;50.196;6.454;2022-07-01T00:41:12;0.75;;;0.43;;
27231;SDS011;61835;50.196;6.454;2022-07-01T00:43:37;1.10;;;0.50;;
27231;SDS011;61835;50.196;6.454;2022-07-01T00:46:04;0.40;;;0.35;;
27231;SDS011;61835;50.196;6.454;2022-07-01T00:48:30;0.30;;;0.30;;
27231;SDS011;61835;50.196;6.454;2022-07-01T00:50:57;1.02;;;0.60;;
27231;SDS011;61835;50.196;6.454;2022-07-01T00:53:23;0.40;;;0.40;;
27231;SDS011;61835;50.196;6.454;2022-07-01T00:55:49;0.73;;;0.50;;
27231;SDS011;61835;50.196;6.454;2022-07-01T00:58:15;0.70;;;0.40;;
27231;SDS011;61835;50.196;6.454;2022-07-01T01:00:40;1.55;;;0.70;;
27231;SDS011;61835;50.196;6.454;2022-07-01T01:03:06;1.40;;;0.82;;
27231;SDS011;61835;50.196;6.454;2022-07-01T01:05:33;0.75;;;0.57;;
27231;SDS011;61835;50.196;6.454;2022-07-01T01:07:59;1.48;;;0.82;;
27231;SDS011;61835;50.196;6.454;2022-07-01T01:10:24;0.70;;;0.65;;
27231;SDS011;61835;50.196;6.454;2022-07-01T01:12:52;0.35;;;0.35;;
27231;SDS011;61835;50.196;6.454;2022-07-01T01:15:19;1.48;;;0.75;;
27231;SDS011;61835;50.196;6.454;2022-07-01T01:17:45;4.68;;;1.10;;
27231;SDS011;61835;50.196;6.454;2022-07-01T01:20:18;3.25;;;0.80;;
27231;SDS011;61835;50.196;6.454;2022-07-01T01:22:45;0.35;;;0.30;;
27231;SDS011;61835;50.196;6.454;2022-07-01T01:25:12;1.13;;;0.85;;
27231;SDS011;61835;50.196;6.454;2022-07-01T01:27:38;2.17;;;0.47;;
27231;SDS011;61835;50.196;6.454;2022-07-01T01:30:06;1.48;;;0.93;;
27231;SDS011;61835;50.196;6.454;2022-07-01T01:32:34;1.70;;;0.95;;
27231;SDS011;61835;50.196;6.454;2022-07-01T01:35:00;0.65;;;0.52;;
27231;SDS011;61835;50.196;6.454;2022-07-01T01:37:26;0.60;;;0.60;;
27231;SDS011;61835;50.196;6.454;2022-07-01T01:39:52;2.15;;;0.70;;
27231;SDS011;61835;50.196;6.454;2022-07-01T01:42:18;0.95;;;0.68;;
27231;SDS011;61835;50.196;6.454;2022-07-01T01:44:44;1.45;;;0.65;;
27231;SDS011;61835;50.196;6.454;2022-07-01T01:47:09;1.00;;;0.65;;
27231;SDS011;61835;50.196;6.454;2022-07-01T01:49:35;0.98;;;0.93;;
27231;SDS011;61835;50.196;6.454;2022-07-01T01:52:00;1.13;;;0.80;;
27231;SDS011;61835;50.196;6.454;2022-07-01T01:54:26;2.92;;;0.88;;
27231;SDS011;61835;50.196;6.454;2022-07-01T01:56:52;0.52;;;0.52;;
27231;SDS011;61835;50.196;6.454;2022-07-01T01:59:17;1.73;;;0.95;;
27231;SDS011;61835;50.196;6.454;2022-07-01T02:01:43;0.93;;;0.50;;
27231;SDS011;61835;50.196;6.454;2022-07-01T02:04:09;2.55;;;0.60;;
27231;SDS011;61835;50.196;6.454;2022-07-01T02:06:34;0.85;;;0.85;;
27231;SDS011;61835;50.196;6.454;2022-07-01T02:08:59;1.60;;;0.93;;
27231;SDS011;61835;50.196;6.454;2022-07-01T02:11:25;2.53;;;1.00;;
27231;SDS011;61835;50.196;6.454;2022-07-01T02:13:51;1.83;;;1.00;;
27231;SDS011;61835;50.196;6.454;2022-07-01T02:16:17;0.20;;;0.20;;
27231;SDS011;61835;50.196;6.454;2022-07-01T02:18:42;7.32;;;1.48;;
27231;SDS011;61835;50.196;6.454;2022-07-01T02:21:07;0.95;;;0.85;;
27231;SDS011;61835;50.196;6.454;2022-07-01T02:23:33;0.57;;;0.40;;
27231;SDS011;61835;50.196;6.454;2022-07-01T02:25:58;1.17;;;0.93;;
27231;SDS011;61835;50.196;6.454;2022-07-01T02:28:24;0.85;;;0.60;;
27231;SDS011;61835;50.196;6.454;2022-07-01T02:30:49;6.78;;;1.38;;
27231;SDS011;61835;50.196;6.454;2022-07-01T02:33:15;4.80;;;1.55;;
27231;SDS011;61835;50.196;6.454;2022-07-01T02:35:40;1.23;;;0.63;;
27231;SDS011;61835;50.196;6.454;2022-07-01T02:38:06;0.60;;;0.60;;
27231;SDS011;61835;50.196;6.454;2022-07-01T02:40:34;1.48;;;0.77;;
27231;SDS011;61835;50.196;6.454;2022-07-01T02:43:03;2.58;;;1.20;;
27231;SDS011;61835;50.196;6.454;2022-07-01T02:45:29;0.77;;;0.77;;
27231;SDS011;61835;50.196;6.454;2022-07-01T02:47:54;0.93;;;0.80;;
27231;SDS011;61835;50.196;6.454;2022-07-01T02:50:20;2.72;;;1.85;;
27231;SDS011;61835;50.196;6.454;2022-07-01T02:52:45;0.82;;;0.77;;
27231;SDS011;61835;50.196;6.454;2022-07-01T02:55:12;0.90;;;0.65;;
27231;SDS011;61835;50.196;6.454;2022-07-01T02:57:41;1.88;;;0.88;;
27231;SDS011;61835;50.196;6.454;2022-07-01T03:00:09;0.52;;;0.52;;
27231;SDS011;61835;50.196;6.454;2022-07-01T03:02:36;2.05;;;1.08;;
27231;SDS011;61835;50.196;6.454;2022-07-01T03:05:02;0.98;;;0.50;;
27231;SDS011;61835;50.196;6.454;2022-07-01T03:07:28;1.42;;;0.60;;
27231;SDS011;61835;50.196;6.454;2022-07-01T03:09:54;0.85;;;0.82;;
27231;SDS011;61835;50.196;6.454;2022-07-01T03:12:19;2.03;;;1.15;;
27231;SDS011;61835;50.196;6.454;2022-07-01T03:17:21;1.00;;;0.73;;
27231;SDS011;61835;50.196;6.454;2022-07-01T03:19:48;0.82;;;0.82;;
27231;SDS011;61835;50.196;6.454;2022-07-01T03:22:14;1.50;;;1.23;;
27231;SDS011;61835;50.196;6.454;2022-07-01T03:24:41;1.02;;;0.60;;
27231;SDS011;61835;50.196;6.454;2022-07-01T03:27:06;2.42;;;1.52;;
27231;SDS011;61835;50.196;6.454;2022-07-01T03:29:32;2.67;;;1.35;;
27231;SDS011;61835;50.196;6.454;2022-07-01T03:31:58;1.23;;;1.08;;
27231;SDS011;61835;50.196;6.454;2022-07-01T03:34:24;0.85;;;0.60;;
27231;SDS011;61835;50.196;6.454;2022-07-01T03:36:49;1.02;;;0.93;;
27231;SDS011;61835;50.196;6.454;2022-07-01T03:39:15;0.55;;;0.55;;
27231;SDS011;61835;50.196;6.454;2022-07-01T03:41:40;1.75;;;1.02;;
27231;SDS011;61835;50.196;6.454;2022-07-01T03:44:06;3.08;;;1.45;;
27231;SDS011;61835;50.196;6.454;2022-07-01T03:46:31;1.38;;;0.77;;
27231;SDS011;61835;50.196;6.454;2022-07-01T03:48:57;4.00;;;1.67;;
27231;SDS011;61835;50.196;6.454;2022-07-01T03:51:24;2.97;;;1.17;;
27231;SDS011;61835;50.196;6.454;2022-07-01T03:53:49;6.75;;;1.42;;
27231;SDS011;61835;50.196;6.454;2022-07-01T03:56:34;1.13;;;1.02;;
27231;SDS011;61835;50.196;6.454;2022-07-01T03:58:59;1.80;;;1.30;;
27231;SDS011;61835;50.196;6.454;2022-07-01T04:01:25;2.25;;;1.60;;
27231;SDS011;61835;50.196;6.454;2022-07-01T04:03:51;2.83;;;1.95;;
27231;SDS011;61835;50.196;6.454;2022-07-01T04:06:17;1.42;;;1.08;;
27231;SDS011;61835;50.196;6.454;2022-07-01T04:08:43;1.08;;;0.65;;
27231;SDS011;61835;50.196;6.454;2022-07-01T04:11:09;11.15;;;1.77;;
27231;SDS011;61835;50.196;6.454;2022-07-01T04:13:36;1.58;;;0.80;;
27231;SDS011;61835;50.196;6.454;2022-07-01T04:16:05;1.10;;;0.68;;
27231;SDS011;61835;50.196;6.454;2022-07-01T04:18:31;1.08;;;0.88;;
27231;SDS011;61835;50.196;6.454;2022-07-01T04:20:57;2.00;;;1.27;;
27231;SDS011;61835;50.196;6.454;2022-07-01T04:23:42;3.92;;;1.13;;
27231;SDS011;61835;50.196;6.454;2022-07-01T04:26:08;6.40;;;1.25;;
27231;SDS011;61835;50.196;6.454;2022-07-01T04:28:34;1.55;;;0.90;;
27231;SDS011;61835;50.196;6.454;2022-07-01T04:31:00;2.50;;;1.20;;
27231;SDS011;61835;50.196;6.454;2022-07-01T04:33:26;1.48;;;0.80;;
27231;SDS011;61835;50.196;6.454;2022-07-01T04:35:51;1.65;;;1.15;;
27231;SDS011;61835;50.196;6.454;2022-07-01T04:38:17;6.70;;;1.65;;
27231;SDS011;61835;50.196;6.454;2022-07-01T04:40:42;0.90;;;0.90;;
27231;SDS011;61835;50.196;6.454;2022-07-01T04:43:28;1.92;;;0.88;;
27231;SDS011;61835;50.196;6.454;2022-07-01T04:45:54;1.35;;;1.00;;
27231;SDS011;61835;50.196;6.454;2022-07-01T04:48:20;1.25;;;0.80;;
27231;SDS011;61835;50.196;6.454;2022-07-01T04:50:46;4.10;;;0.90;;
27231;SDS011;61835;50.196;6.454;2022-07-01T04:53:15;1.40;;;1.05;;
27231;SDS011;61835;50.196;6.454;2022-07-01T04:55:40;0.90;;;0.88;;
27231;SDS011;61835;50.196;6.454;2022-07-01T04:58:06;2.10;;;1.10;;
27231;SDS011;61835;50.196;6.454;2022-07-01T05:00:31;2.42;;;1.40;;
27231;SDS011;61835;50.196;6.454;2022-07-01T05:02:57;1.02;;;0.88;;
27231;SDS011;61835;50.196;6.454;2022-07-01T05:05:23;1.50;;;1.10;;
27231;SDS011;61835;50.196;6.454;2022-07-01T05:07:48;2.63;;;1.10;;
27231;SDS011;61835;50.196;6.454;2022-07-01T05:10:14;1.42;;;0.93;;
27231;SDS011;61835;50.196;6.454;2022-07-01T05:12:40;2.60;;;1.05;;
27231;SDS011;61835;50.196;6.454;2022-07-01T05:15:06;0.70;;;0.70;;
27231;SDS011;61835;50.196;6.454;2022-07-01T05:17:32;4.63;;;1.38;;
27231;SDS011;61835;50.196;6.454;2022-07-01T05:20:17;1.42;;;0.73;;
27231;SDS011;61835;50.196;6.454;2022-07-01T05:23:01;2.38;;;1.38;;
27231;SDS011;61835;50.196;6.454;2022-07-01T05:25:26;7.28;;;1.08;;
27231;SDS011;61835;50.196;6.454;2022-07-01T05:27:52;1.00;;;0.95;;
27231;SDS011;61835;50.196;6.454;2022-07-01T05:30:19;2.28;;;1.00;;
27231;SDS011;61835;50.196;6.454;2022-07-01T05:32:48;2.00;;;1.05;;
27231;SDS011;61835;50.196;6.454;2022-07-01T05:35:13;2.67;;;1.67;;
27231;SDS011;61835;50.196;6.454;2022-07-01T05:37:40;5.60;;;0.98;;
27231;SDS011;61835;50.196;6.454;2022-07-01T05:40:06;1.88;;;1.27;;
27231;SDS011;61835;50.196;6.454;2022-07-01T05:42:32;1.55;;;1.00;;
27231;SDS011;61835;50.196;6.454;2022-07-01T05:44:58;0.52;;;0.50;;
27231;SDS011;61835;50.196;6.454;2022-07-01T05:47:26;0.90;;;0.50;;
27231;SDS011;61835;50.196;6.454;2022-07-01T05:49:51;5.80;;;1.10;;
27231;SDS011;61835;50.196;6.454;2022-07-01T05:52:17;0.95;;;0.75;;
27231;SDS011;61835;50.196;6.454;2022-07-01T05:54:42;4.13;;;0.70;;
27231;SDS011;61835;50.196;6.454;2022-07-01T05:57:08;1.08;;;0.60;;
27231;SDS011;61835;50.196;6.454;2022-07-01T05:59:35;0.60;;;0.45;;
27231;SDS011;61835;50.196;6.454;2022-07-01T06:02:00;0.40;;;0.30;;
27231;SDS011;61835;50.196;6.454;2022-07-01T06:04:26;0.85;;;0.40;;
27231;SDS011;61835;50.196;6.454;2022-07-01T06:06:52;0.35;;;0.35;;
27231;SDS011;61835;50.196;6.454;2022-07-01T06:09:17;1.58;;;0.40;;
27231;SDS011;61835;50.196;6.454;2022-07-01T06:11:44;0.47;;;0.40;;
27231;SDS011;61835;50.196;6.454;2022-07-01T06:14:11;0.98;;;0.85;;
27231;SDS011;61835;50.196;6.454;2022-07-01T06:16:36;2.10;;;0.70;;
27231;SDS011;61835;50.196;6.454;2022-07-01T06:19:02;0.28;;;0.28;;
27231;SDS011;61835;50.196;6.454;2022-07-01T06:21:29;0.47;;;0.28;;
27231;SDS011;61835;50.196;6.454;2022-07-01T06:23:55;1.00;;;0.63;;
27231;SDS011;61835;50.196;6.454;2022-07-01T06:26:20;0.55;;;0.50;;
27231;SDS011;61835;50.196;6.454;2022-07-01T06:28:46;0.60;;;0.50;;
27231;SDS011;61835;50.196;6.454;2022-07-01T06:31:11;1.15;;;0.75;;
27231;SDS011;61835;50.196;6.454;2022-07-01T06:33:37;2.22;;;0.63;;
27231;SDS011;61835;50.196;6.454;2022-07-01T06:36:03;0.70;;;0.38;;
27231;SDS011;61835;50.196;6.454;2022-07-01T06:38:28;1.13;;;0.40;;
27231;SDS011;61835;50.196;6.454;2022-07-01T06:40:54;1.50;;;0.73;;
27231;SDS011;61835;50.196;6.454;2022-07-01T06:43:39;0.85;;;0.68;;
27231;SDS011;61835;50.196;6.454;2022-07-01T06:46:04;0.47;;;0.40;;
27231;SDS011;61835;50.196;6.454;2022-07-01T06:48:30;0.55;;;0.30;;
27231;SDS011;61835;50.196;6.454;2022-07-01T06:50:55;0.30;;;0.30;;
27231;SDS011;61835;50.196;6.454;2022-07-01T06:53:24;1.42;;;0.45;;
27231;SDS011;61835;50.196;6.454;2022-07-01T06:55:49;4.45;;;0.50;;
27231;SDS011;61835;50.196;6.454;2022-07-01T06:58:15;3.10;;;0.82;;
27231;SDS011;61835;50.196;6.454;2022-07-01T07:00:40;3.28;;;0.70;;
27231;SDS011;61835;50.196;6.454;2022-07-01T07:03:07;0.98;;;0.60;;
27231;SDS011;61835;50.196;6.454;2022-07-01T07:05:32;0.30;;;0.30;;
27231;SDS011;61835;50.196;6.454;2022-07-01T07:07:58;0.88;;;0.40;;
27231;SDS011;61835;50.196;6.454;2022-07-01T07:10:23;0.82;;;0.40;;
27231;SDS011;61835;50.196;6.454;2022-07-01T07:12:49;0.43;;;0.35;;
27231;SDS011;61835;50.196;6.454;2022-07-01T07:15:15;0.73;;;0.60;;
27231;SDS011;61835;50.196;6.454;2022-07-01T07:17:41;1.17;;;0.50;;
27231;SDS011;61835;50.196;6.454;2022-07-01T07:20:07;0.30;;;0.30;;
27231;SDS011;61835;50.196;6.454;2022-07-01T07:22:33;0.68;;;0.40;;
27231;SDS011;61835;50.196;6.454;2022-07-01T07:24:58;1.08;;;0.40;;
27231;SDS011;61835;50.196;6.454;2022-07-01T07:27:24;2.97;;;0.90;;
27231;SDS011;61835;50.196;6.454;2022-07-01T07:29:50;0.80;;;0.63;;
27231;SDS011;61835;50.196;6.454;2022-07-01T07:32:16;0.50;;;0.40;;
27231;SDS011;61835;50.196;6.454;2022-07-01T07:34:42;1.13;;;0.65;;
27231;SDS011;61835;50.196;6.454;2022-07-01T07:37:08;1.15;;;0.30;;
27231;SDS011;61835;50.196;6.454;2022-07-01T07:39:33;0.40;;;0.30;;
27231;SDS011;61835;50.196;6.454;2022-07-01T07:41:59;1.05;;;0.40;;
27231;SDS011;61835;50.196;6.454;2022-07-01T07:44:25;0.25;;;0.20;;
27231;SDS011;61835;50.196;6.454;2022-07-01T07:46:50;1.10;;;0.40;;
27231;SDS011;61835;50.196;6.454;2022-07-01T07:49:16;0.50;;;0.30;;
27231;SDS011;61835;50.196;6.454;2022-07-01T07:51:41;0.30;;;0.30;;
27231;SDS011;61835;50.196;6.454;2022-07-01T07:54:07;0.30;;;0.20;;
27231;SDS011;61835;50.196;6.454;2022-07-01T07:56:32;0.45;;;0.20;;
27231;SDS011;61835;50.196;6.454;2022-07-01T07:58:58;0.30;;;0.30;;
27231;SDS011;61835;50.196;6.454;2022-07-01T08:01:23;0.40;;;0.28;;
27231;SDS011;61835;50.196;6.454;2022-07-01T08:03:49;0.32;;;0.25;;
27231;SDS011;61835;50.196;6.454;2022-07-01T08:06:15;1.50;;;0.77;;
27231;SDS011;61835;50.196;6.454;2022-07-01T08:08:40;0.52;;;0.30;;
27231;SDS011;61835;50.196;6.454;2022-07-01T08:11:06;0.13;;;0.13;;
27231;SDS011;61835;50.196;6.454;2022-07-01T08:13:31;0.70;;;0.32;;
27231;SDS011;61835;50.196;6.454;2022-07-01T08:15:57;0.13;;;0.13;;
27231;SDS011;61835;50.196;6.454;2022-07-01T08:18:26;0.20;;;0.20;;
27231;SDS011;61835;50.196;6.454;2022-07-01T08:20:51;2.05;;;0.40;;
27231;SDS011;61835;50.196;6.454;2022-07-01T08:23:18;0.35;;;0.20;;
27231;SDS011;61835;50.196;6.454;2022-07-01T08:25:45;0.20;;;0.20;;
27231;SDS011;61835;50.196;6.454;2022-07-01T08:28:12;0.60;;;0.40;;
27231;SDS011;61835;50.196;6.454;2022-07-01T08:30:37;0.30;;;0.20;;
27231;SDS011;61835;50.196;6.454;2022-07-01T08:33:04;0.50;;;0.30;;
27231;SDS011;61835;50.196;6.454;2022-07-01T08:35:29;1.13;;;0.38;;
27231;SDS011;61835;50.196;6.454;2022-07-01T08:37:56;0.57;;;0.30;;
27231;SDS011;61835;50.196;6.454;2022-07-01T08:40:26;0.82;;;0.20;;
27231;SDS011;61835;50.196;6.454;2022-07-01T08:42:59;2.25;;;0.40;;
27231;SDS011;61835;50.196;6.454;2022-07-01T08:45:27;0.20;;;0.20;;
27231;SDS011;61835;50.196;6.454;2022-07-01T08:47:55;0.20;;;0.20;;
27231;SDS011;61835;50.196;6.454;2022-07-01T08:50:26;0.35;;;0.20;;
27231;SDS011;61835;50.196;6.454;2022-07-01T08:52:56;1.05;;;0.35;;
27231;SDS011;61835;50.196;6.454;2022-07-01T08:55:22;0.20;;;0.20;;
27231;SDS011;61835;50.196;6.454;2022-07-01T08:57:48;0.75;;;0.60;;
27231;SDS011;61835;50.196;6.454;2022-07-01T09:00:14;1.33;;;0.28;;
27231;SDS011;61835;50.196;6.454;2022-07-01T09:05:17;0.98;;;0.30;;
27231;SDS011;61835;50.196;6.454;2022-07-01T09:07:43;0.30;;;0.30;;
27231;SDS011;61835;50.196;6.454;2022-07-01T09:10:15;0.10;;;0.10;;
27231;SDS011;61835;50.196;6.454;2022-07-01T09:12:43;0.30;;;0.30;;
27231;SDS011;61835;50.196;6.454;2022-07-01T09:15:20;4.03;;;0.32;;
27231;SDS011;61835;50.196;6.454;2022-07-01T09:17:55;7.90;;;0.30;;
27231;SDS011;61835;50.196;6.454;2022-07-01T09:23:13;9.05;;;0.73;;
27231;SDS011;61835;50.196;6.454;2022-07-01T09:25:41;0.57;;;0.50;;
27231;SDS011;61835;50.196;6.454;2022-07-01T09:28:10;0.20;;;0.20;;
27231;SDS011;61835;50.196;6.454;2022-07-01T09:30:38;0.10;;;0.10;;
27231;SDS011;61835;50.196;6.454;2022-07-01T09:35:48;0.13;;;0.13;;
27231;SDS011;61835;50.196;6.454;2022-07-01T09:38:17;0.25;;;0.20;;
27231;SDS011;61835;50.196;6.454;2022-07-01T09:40:59;0.55;;;0.20;;
27231;SDS011;61835;50.196;6.454;2022-07-01T09:43:28;0.10;;;0.10;;
27231;SDS011;61835;50.196;6.454;2022-07-01T09:45:56;0.20;;;0.20;;
27231;SDS011;61835;50.196;6.454;2022-07-01T09:50:58;0.52;;;0.10;;
27231;SDS011;61835;50.196;6.454;2022-07-01T09:53:25;0.90;;;0.20;;
27231;SDS011;61835;50.196;6.454;2022-07-01T09:55:50;0.10;;;0.10;;
27231;SDS011;61835;50.196;6.454;2022-07-01T09:58:16;1.38;;;0.75;;
27231;SDS011;61835;50.196;6.454;2022-07-01T10:00:42;0.32;;;0.32;;
27231;SDS011;61835;50.196;6.454;2022-07-01T10:03:08;1.75;;;0.20;;
27231;SDS011;61835;50.196;6.454;2022-07-01T10:14:07;3.83;;;1.00;;
27231;SDS011;61835;50.196;6.454;2022-07-01T10:16:34;0.10;;;0.10;;
27231;SDS011;61835;50.196;6.454;2022-07-01T10:22:46;0.10;;;0.10;;
27231;SDS011;61835;50.196;6.454;2022-07-01T10:24:54;0.10;;;0.10;;
27231;SDS011;61835;50.196;6.454;2022-07-01T10:27:22;0.10;;;0.10;;
27231;SDS011;61835;50.196;6.454;2022-07-01T10:30:11;0.52;;;0.10;;
27231;SDS011;61835;50.196;6.454;2022-07-01T10:32:46;0.52;;;0.20;;
27231;SDS011;61835;50.196;6.454;2022-07-01T10:35:13;0.20;;;0.20;;
27231;SDS011;61835;50.196;6.454;2022-07-01T10:37:58;0.10;;;0.10;;
27231;SDS011;61835;50.196;6.454;2022-07-01T10:40:43;0.30;;;0.10;;
27231;SDS011;61835;50.196;6.454;2022-07-01T10:43:10;0.32;;;0.32;;
27231;SDS011;61835;50.196;6.454;2022-07-01T10:45:42;2.30;;;0.25;;
27231;SDS011;61835;50.196;6.454;2022-07-01T10:48:21;0.22;;;0.22;;
27231;SDS011;61835;50.196;6.454;2022-07-01T10:50:48;0.10;;;0.10;;
27231;SDS011;61835;50.196;6.454;2022-07-01T10:53:15;0.10;;;0.10;;
27231;SDS011;61835;50.196;6.454;2022-07-01T10:55:46;6.13;;;0.35;;
27231;SDS011;61835;50.196;6.454;2022-07-01T10:58:18;0.25;;;0.10;;
27231;SDS011;61835;50.196;6.454;2022-07-01T11:01:00;0.10;;;0.10;;
27231;SDS011;61835;50.196;6.454;2022-07-01T11:03:26;0.10;;;0.10;;
27231;SDS011;61835;50.196;6.454;2022-07-01T11:05:52;0.70;;;0.20;;
27231;SDS011;61835;50.196;6.454;2022-07-01T11:08:19;0.10;;;0.10;;
27231;SDS011;61835;50.196;6.454;2022-07-01T11:10:48;0.10;;;0.10;;
27231;SDS011;61835;50.196;6.454;2022-07-01T11:13:15;0.13;;;0.10;;
27231;SDS011;61835;50.196;6.454;2022-07-01T11:15:44;0.10;;;0.10;;
27231;SDS011;61835;50.196;6.454;2022-07-01T11:18:10;0.20;;;0.15;;
27231;SDS011;61835;50.196;6.454;2022-07-01T11:20:37;0.20;;;0.20;;
27231;SDS011;61835;50.196;6.454;2022-07-01T11:23:05;0.47;;;0.15;;
27231;SDS011;61835;50.196;6.454;2022-07-01T11:25:31;0.20;;;0.10;;
27231;SDS011;61835;50.196;6.454;2022-07-01T11:27:57;0.98;;;0.32;;
27231;SDS011;61835;50.196;6.454;2022-07-01T11:30:22;0.10;;;0.10;;
27231;SDS011;61835;50.196;6.454;2022-07-01T11:32:50;0.10;;;0.10;;
27231;SDS011;61835;50.196;6.454;2022-07-01T11:35:21;0.00;;;0.00;;
27231;SDS011;61835;50.196;6.454;2022-07-01T11:38:17;0.30;;;0.10;;
27231;SDS011;61835;50.196;6.454;2022-07-01T11:41:03;1.08;;;0.10;;
27231;SDS011;61835;50.196;6.454;2022-07-01T11:43:32;0.52;;;0.10;;
27231;SDS011;61835;50.196;6.454;2022-07-01T11:46:03;0.68;;;0.30;;
27231;SDS011;61835;50.196;6.454;2022-07-01T11:48:31;0.00;;;0.00;;
27231;SDS011;61835;50.196;6.454;2022-07-01T11:50:59;0.15;;;0.10;;
27231;SDS011;61835;50.196;6.454;2022-07-01T11:53:25;0.32;;;0.10;;
27231;SDS011;61835;50.196;6.454;2022-07-01T11:55:51;1.60;;;0.40;;
27231;SDS011;61835;50.196;6.454;2022-07-01T11:58:17;0.10;;;0.10;;
27231;SDS011;61835;50.196;6.454;2022-07-01T12:00:43;0.10;;;0.08;;
27231;SDS011;61835;50.196;6.454;2022-07-01T12:03:08;0.17;;;0.10;;
27231;SDS011;61835;50.196;6.454;2022-07-01T12:05:36;0.10;;;0.10;;
27231;SDS011;61835;50.196;6.454;2022-07-01T12:08:02;0.20;;;0.00;;
27231;SDS011;61835;50.196;6.454;2022-07-01T12:10:28;0.17;;;0.00;;
27231;SDS011;61835;50.196;6.454;2022-07-01T12:12:55;0.52;;;0.15;;
27231;SDS011;61835;50.196;6.454;2022-07-01T12:15:21;0.57;;;0.10;;
27231;SDS011;61835;50.196;6.454;2022-07-01T12:17:48;0.05;;;0.03;;
27231;SDS011;61835;50.196;6.454;2022-07-01T12:20:14;0.20;;;0.08;;
27231;SDS011;61835;50.196;6.454;2022-07-01T12:22:40;0.38;;;0.08;;
27231;SDS011;61835;50.196;6.454;2022-07-01T12:25:07;0.10;;;0.00;;
27231;SDS011;61835;50.196;6.454;2022-07-01T12:27:37;0.57;;;0.57;;
27231;SDS011;61835;50.196;6.454;2022-07-01T12:30:05;0.25;;;0.20;;
27231;SDS011;61835;50.196;6.454;2022-07-01T12:32:34;1.83;;;0.30;;
27231;SDS011;61835;50.196;6.454;2022-07-01T12:35:02;0.10;;;0.10;;
27231;SDS011;61835;50.196;6.454;2022-07-01T12:37:54;0.10;;;0.10;;
27231;SDS011;61835;50.196;6.454;2022-07-01T12:40:21;0.10;;;0.10;;
27231;SDS011;61835;50.196;6.454;2022-07-01T12:42:48;0.57;;;0.10;;
27231;SDS011;61835;50.196;6.454;2022-07-01T12:45:15;0.80;;;0.20;;
27231;SDS011;61835;50.196;6.454;2022-07-01T12:47:43;0.10;;;0.10;;
27231;SDS011;61835;50.196;6.454;2022-07-01T12:58:18;0.45;;;0.17;;
27231;SDS011;61835;50.196;6.454;2022-07-01T13:00:46;0.60;;;0.30;;
27231;SDS011;61835;50.196;6.454;2022-07-01T13:03:12;1.55;;;0.57;;
27231;SDS011;61835;50.196;6.454;2022-07-01T13:05:38;0.57;;;0.30;;
27231;SDS011;61835;50.196;6.454;2022-07-01T13:08:05;0.10;;;0.10;;
27231;SDS011;61835;50.196;6.454;2022-07-01T13:10:31;0.47;;;0.10;;
27231;SDS011;61835;50.196;6.454;2022-07-01T13:12:56;0.25;;;0.10;;
27231;SDS011;61835;50.196;6.454;2022-07-01T13:15:22;2.03;;;0.10;;
27231;SDS011;61835;50.196;6.454;2022-07-01T13:17:48;0.10;;;0.10;;
27231;SDS011;61835;50.196;6.454;2022-07-01T13:20:16;0.40;;;0.38;;
27231;SDS011;61835;50.196;6.454;2022-07-01T13:22:42;0.10;;;0.10;;
27231;SDS011;61835;50.196;6.454;2022-07-01T13:25:09;0.25;;;0.22;;
27231;SDS011;61835;50.196;6.454;2022-07-01T13:27:35;0.25;;;0.25;;
27231;SDS011;61835;50.196;6.454;2022-07-01T13:30:03;0.10;;;0.10;;
27231;SDS011;61835;50.196;6.454;2022-07-01T13:32:33;0.32;;;0.10;;
27231;SDS011;61835;50.196;6.454;2022-07-01T13:34:59;1.85;;;0.10;;
27231;SDS011;61835;50.196;6.454;2022-07-01T13:37:25;0.00;;;0.00;;
27231;SDS011;61835;50.196;6.454;2022-07-01T13:39:52;0.10;;;0.00;;
27231;SDS011;61835;50.196;6.454;2022-07-01T13:42:17;0.15;;;0.03;;
27231;SDS011;61835;50.196;6.454;2022-07-01T13:44:43;1.58;;;0.40;;
27231;SDS011;61835;50.196;6.454;2022-07-01T13:47:08;0.20;;;0.00;;
27231;SDS011;61835;50.196;6.454;2022-07-01T13:49:39;0.08;;;0.03;;
27231;SDS011;61835;50.196;6.454;2022-07-01T13:52:07;0.20;;;0.10;;
27231;SDS011;61835;50.196;6.454;2022-07-01T13:54:34;2.50;;;0.20;;
27231;SDS011;61835;50.196;6.454;2022-07-01T13:56:59;0.00;;;0.00;;
27231;SDS011;61835;50.196;6.454;2022-07-01T13:59:25;1.33;;;0.10;;
27231;SDS011;61835;50.196;6.454;2022-07-01T14:01:51;0.52;;;0.10;;
27231;SDS011;61835;50.196;6.454;2022-07-01T14:04:17;0.15;;;0.15;;
27231;SDS011;61835;50.196;6.454;2022-07-01T14:06:42;0.70;;;0.20;;
27231;SDS011;61835;50.196;6.454;2022-07-01T14:09:08;0.30;;;0.10;;
27231;SDS011;61835;50.196;6.454;2022-07-01T14:11:33;0.10;;;0.10;;
27231;SDS011;61835;50.196;6.454;2022-07-01T14:13:59;0.20;;;0.10;;
27231;SDS011;61835;50.196;6.454;2022-07-01T14:16:25;0.50;;;0.13;;
27231;SDS011;61835;50.196;6.454;2022-07-01T14:18:54;0.15;;;0.10;;
27231;SDS011;61835;50.196;6.454;2022-07-01T14:21:21;1.55;;;0.30;;
27231;SDS011;61835;50.196;6.454;2022-07-01T14:23:47;0.10;;;0.10;;
27231;SDS011;61835;50.196;6.454;2022-07-01T14:26:14;0.30;;;0.30;;
27231;SDS011;61835;50.196;6.454;2022-07-01T14:28:39;0.15;;;0.10;;
27231;SDS011;61835;50.196;6.454;2022-07-01T14:31:08;0.90;;;0.10;;
27231;SDS011;61835;50.196;6.454;2022-07-01T14:33:34;0.20;;;0.10;;
27231;SDS011;61835;50.196;6.454;2022-07-01T14:36:00;0.10;;;0.10;;
27231;SDS011;61835;50.196;6.454;2022-07-01T14:38:26;0.15;;;0.15;;
27231;SDS011;61835;50.196;6.454;2022-07-01T14:40:51;0.20;;;0.10;;
27231;SDS011;61835;50.196;6.454;2022-07-01T14:43:18;0.10;;;0.10;;
27231;SDS011;61835;50.196;6.454;2022-07-01T14:45:43;0.10;;;0.10;;
27231;SDS011;61835;50.196;6.454;2022-07-01T14:48:10;0.30;;;0.13;;
27231;SDS011;61835;50.196;6.454;2022-07-01T14:50:36;0.10;;;0.10;;
27231;SDS011;61835;50.196;6.454;2022-07-01T14:53:01;0.32;;;0.30;;
27231;SDS011;61835;50.196;6.454;2022-07-01T14:55:28;1.25;;;0.20;;
27231;SDS011;61835;50.196;6.454;2022-07-01T14:57:55;0.10;;;0.10;;
27231;SDS011;61835;50.196;6.454;2022-07-01T15:00:21;0.25;;;0.10;;
27231;SDS011;61835;50.196;6.454;2022-07-01T15:02:47;0.10;;;0.10;;
27231;SDS011;61835;50.196;6.454;2022-07-01T15:05:13;0.13;;;0.10;;
27231;SDS011;61835;50.196;6.454;2022-07-01T15:07:40;0.00;;;0.00;;
27231;SDS011;61835;50.196;6.454;2022-07-01T15:10:07;0.32;;;0.03;;
27231;SDS011;61835;50.196;6.454;2022-07-01T15:12:33;0.05;;;0.00;;
27231;SDS011;61835;50.196;6.454;2022-07-01T15:14:59;0.20;;;0.20;;
27231;SDS011;61835;50.196;6.454;2022-07-01T15:17:25;0.88;;;0.10;;
27231;SDS011;61835;50.196;6.454;2022-07-01T15:19:51;0.63;;;0.40;;
27231;SDS011;61835;50.196;6.454;2022-07-01T15:22:17;0.20;;;0.10;;